This is the latest recevied weather packets stored in our database for station/object IU2PLZ-12. If no packets are shown the sender has not sent any weather packets the latest 10 day(s).
| Time | Temp. | Humidity | Pressure | Rain* | Wind** | Luminosity | Snow |
|---|---|---|---|---|---|---|---|
| 1777110265 | 28.89° C | 24% | 998.4 hPa | - | - | - | - |
| 1777109365 | 28.33° C | 24% | 998.6 hPa | - | - | - | - |
| 1777108465 | 30° C | 23% | 998.6 hPa | - | - | - | - |
| 1777107565 | 30.56° C | 24% | 998.5 hPa | - | - | - | - |
| 1777106664 | 29.44° C | 25% | 998.5 hPa | - | - | - | - |
| 1777105764 | 30.56° C | 25% | 998.7 hPa | - | - | - | - |
| 1777104864 | 30.56° C | 25% | 998.7 hPa | - | - | - | - |
| 1777103963 | 31.11° C | 25% | 998.7 hPa | - | - | - | - |
| 1777103063 | 30° C | 26% | 998.7 hPa | - | - | - | - |
| 1777102163 | 27.78° C | 28% | 998.8 hPa | - | - | - | - |
| 1777101262 | 27.22° C | 28% | 998.8 hPa | - | - | - | - |
| 1777100362 | 25.56° C | 31% | 998.7 hPa | - | - | - | - |
| 1777099462 | 20.56° C | 39% | 998.7 hPa | - | - | - | - |
| 1777098562 | 17.22° C | 46% | 998.7 hPa | - | - | - | - |
| 1777097661 | 15.56° C | 45% | 998.6 hPa | - | - | - | - |
| 1777096761 | 15° C | 45% | 998.6 hPa | - | - | - | - |
| 1777095861 | 13.89° C | 46% | 998.6 hPa | - | - | - | - |
| 1777094961 | 13.33° C | 47% | 998.5 hPa | - | - | - | - |
| 1777094061 | 12.78° C | 46% | 998.3 hPa | - | - | - | - |
| 1777093161 | 12.22° C | 46% | 998.2 hPa | - | - | - | - |
| 1777092260 | 12.22° C | 46% | 998 hPa | - | - | - | - |
| 1777091360 | 12.22° C | 46% | 997.9 hPa | - | - | - | - |
| 1777090460 | 12.78° C | 46% | 997.6 hPa | - | - | - | - |
| 1777089560 | 12.78° C | 46% | 997.6 hPa | - | - | - | - |
| 1777088659 | 12.78° C | 46% | 997.6 hPa | - | - | - | - |
* Rain since midnight (hover to see other rain measurements)
** Current wind speed in m/s (hover to see current wind gust speed)